sensor_id;sensor_type;location;lat;lon;timestamp;P1;durP1;ratioP1;P2;durP2;ratioP2
44366;SDS011;30086;57.660;12.000;2023-04-01T00:01:05;2.28;;;1.10;;
44366;SDS011;30086;57.660;12.000;2023-04-01T00:03:32;1.77;;;0.88;;
44366;SDS011;30086;57.660;12.000;2023-04-01T00:05:58;2.38;;;1.23;;
44366;SDS011;30086;57.660;12.000;2023-04-01T00:08:26;1.90;;;1.27;;
44366;SDS011;30086;57.660;12.000;2023-04-01T00:10:52;4.47;;;1.40;;
44366;SDS011;30086;57.660;12.000;2023-04-01T00:13:19;2.28;;;1.10;;
44366;SDS011;30086;57.660;12.000;2023-04-01T00:15:45;2.38;;;1.10;;
44366;SDS011;30086;57.660;12.000;2023-04-01T00:18:11;1.25;;;0.95;;
44366;SDS011;30086;57.660;12.000;2023-04-01T00:20:42;1.52;;;1.20;;
44366;SDS011;30086;57.660;12.000;2023-04-01T00:23:08;1.23;;;1.10;;
44366;SDS011;30086;57.660;12.000;2023-04-01T00:25:34;3.50;;;1.40;;
44366;SDS011;30086;57.660;12.000;2023-04-01T00:28:00;2.78;;;1.33;;
44366;SDS011;30086;57.660;12.000;2023-04-01T00:30:28;2.38;;;1.23;;
44366;SDS011;30086;57.660;12.000;2023-04-01T00:32:58;4.20;;;1.33;;
44366;SDS011;30086;57.660;12.000;2023-04-01T00:35:25;2.55;;;1.48;;
44366;SDS011;30086;57.660;12.000;2023-04-01T00:37:51;1.70;;;1.15;;
44366;SDS011;30086;57.660;12.000;2023-04-01T00:42:50;2.72;;;1.05;;
44366;SDS011;30086;57.660;12.000;2023-04-01T00:45:30;1.45;;;1.13;;
44366;SDS011;30086;57.660;12.000;2023-04-01T00:47:58;1.50;;;1.13;;
44366;SDS011;30086;57.660;12.000;2023-04-01T00:50:25;1.63;;;0.93;;
44366;SDS011;30086;57.660;12.000;2023-04-01T00:52:52;3.45;;;1.33;;
44366;SDS011;30086;57.660;12.000;2023-04-01T00:55:18;1.83;;;1.20;;
44366;SDS011;30086;57.660;12.000;2023-04-01T00:57:46;5.10;;;1.58;;
44366;SDS011;30086;57.660;12.000;2023-04-01T01:00:14;1.33;;;0.98;;
44366;SDS011;30086;57.660;12.000;2023-04-01T01:02:44;2.75;;;1.02;;
44366;SDS011;30086;57.660;12.000;2023-04-01T01:05:14;2.50;;;1.30;;
44366;SDS011;30086;57.660;12.000;2023-04-01T01:07:44;1.30;;;0.90;;
44366;SDS011;30086;57.660;12.000;2023-04-01T01:15:19;1.35;;;0.98;;
44366;SDS011;30086;57.660;12.000;2023-04-01T01:18:07;1.98;;;1.40;;
44366;SDS011;30086;57.660;12.000;2023-04-01T01:26:16;2.05;;;1.13;;
44366;SDS011;30086;57.660;12.000;2023-04-01T01:29:01;1.95;;;1.33;;
44366;SDS011;30086;57.660;12.000;2023-04-01T01:37:03;1.98;;;1.10;;
44366;SDS011;30086;57.660;12.000;2023-04-01T01:39:31;2.70;;;1.63;;
44366;SDS011;30086;57.660;12.000;2023-04-01T01:42:00;1.88;;;1.45;;
44366;SDS011;30086;57.660;12.000;2023-04-01T01:44:28;2.22;;;1.23;;
44366;SDS011;30086;57.660;12.000;2023-04-01T01:46:54;2.25;;;1.10;;
44366;SDS011;30086;57.660;12.000;2023-04-01T01:49:21;1.92;;;1.10;;
44366;SDS011;30086;57.660;12.000;2023-04-01T01:51:47;3.03;;;1.40;;
44366;SDS011;30086;57.660;12.000;2023-04-01T01:54:14;1.48;;;1.15;;
44366;SDS011;30086;57.660;12.000;2023-04-01T01:56:41;2.47;;;1.65;;
44366;SDS011;30086;57.660;12.000;2023-04-01T01:59:08;4.43;;;1.27;;
44366;SDS011;30086;57.660;12.000;2023-04-01T02:01:37;2.40;;;1.13;;
44366;SDS011;30086;57.660;12.000;2023-04-01T02:04:05;5.78;;;1.40;;
44366;SDS011;30086;57.660;12.000;2023-04-01T02:06:32;2.95;;;1.15;;
44366;SDS011;30086;57.660;12.000;2023-04-01T02:09:01;1.85;;;1.30;;
44366;SDS011;30086;57.660;12.000;2023-04-01T02:11:30;3.72;;;1.30;;
44366;SDS011;30086;57.660;12.000;2023-04-01T02:14:01;1.95;;;1.02;;
44366;SDS011;30086;57.660;12.000;2023-04-01T02:16:30;4.00;;;1.10;;
44366;SDS011;30086;57.660;12.000;2023-04-01T02:18:58;4.97;;;1.20;;
44366;SDS011;30086;57.660;12.000;2023-04-01T02:21:26;1.95;;;1.10;;
44366;SDS011;30086;57.660;12.000;2023-04-01T02:23:53;2.42;;;1.25;;
44366;SDS011;30086;57.660;12.000;2023-04-01T02:26:22;2.15;;;1.30;;
44366;SDS011;30086;57.660;12.000;2023-04-01T02:28:50;1.77;;;1.17;;
44366;SDS011;30086;57.660;12.000;2023-04-01T02:31:17;2.97;;;1.25;;
44366;SDS011;30086;57.660;12.000;2023-04-01T02:33:43;5.57;;;1.00;;
44366;SDS011;30086;57.660;12.000;2023-04-01T02:36:11;1.98;;;1.20;;
44366;SDS011;30086;57.660;12.000;2023-04-01T02:38:38;2.60;;;1.40;;
44366;SDS011;30086;57.660;12.000;2023-04-01T02:41:04;1.90;;;1.30;;
44366;SDS011;30086;57.660;12.000;2023-04-01T02:43:31;2.03;;;1.30;;
44366;SDS011;30086;57.660;12.000;2023-04-01T02:45:57;2.72;;;1.10;;
44366;SDS011;30086;57.660;12.000;2023-04-01T02:48:23;1.42;;;0.95;;
44366;SDS011;30086;57.660;12.000;2023-04-01T02:50:49;1.88;;;1.10;;
44366;SDS011;30086;57.660;12.000;2023-04-01T02:53:15;2.78;;;1.13;;
44366;SDS011;30086;57.660;12.000;2023-04-01T02:55:41;1.80;;;1.10;;
44366;SDS011;30086;57.660;12.000;2023-04-01T02:58:07;1.73;;;1.30;;
44366;SDS011;30086;57.660;12.000;2023-04-01T03:00:35;2.25;;;1.25;;
44366;SDS011;30086;57.660;12.000;2023-04-01T03:03:01;2.47;;;1.33;;
44366;SDS011;30086;57.660;12.000;2023-04-01T03:05:27;2.53;;;1.23;;
44366;SDS011;30086;57.660;12.000;2023-04-01T03:07:53;4.03;;;1.38;;
44366;SDS011;30086;57.660;12.000;2023-04-01T03:10:19;3.53;;;1.20;;
44366;SDS011;30086;57.660;12.000;2023-04-01T03:12:46;3.47;;;1.35;;
44366;SDS011;30086;57.660;12.000;2023-04-01T03:15:12;1.17;;;1.05;;
44366;SDS011;30086;57.660;12.000;2023-04-01T03:17:41;2.50;;;1.27;;
44366;SDS011;30086;57.660;12.000;2023-04-01T03:20:08;1.83;;;1.20;;
44366;SDS011;30086;57.660;12.000;2023-04-01T03:22:36;1.75;;;1.10;;
44366;SDS011;30086;57.660;12.000;2023-04-01T03:25:03;1.33;;;1.10;;
44366;SDS011;30086;57.660;12.000;2023-04-01T03:27:35;2.08;;;1.27;;
44366;SDS011;30086;57.660;12.000;2023-04-01T03:30:02;1.20;;;0.85;;
44366;SDS011;30086;57.660;12.000;2023-04-01T03:32:28;1.38;;;1.00;;
44366;SDS011;30086;57.660;12.000;2023-04-01T03:34:55;3.10;;;0.93;;
44366;SDS011;30086;57.660;12.000;2023-04-01T03:37:21;5.10;;;1.00;;
44366;SDS011;30086;57.660;12.000;2023-04-01T03:39:47;2.15;;;1.15;;
44366;SDS011;30086;57.660;12.000;2023-04-01T03:42:13;2.42;;;1.17;;
44366;SDS011;30086;57.660;12.000;2023-04-01T03:44:39;6.30;;;1.02;;
44366;SDS011;30086;57.660;12.000;2023-04-01T03:47:05;1.20;;;1.10;;
44366;SDS011;30086;57.660;12.000;2023-04-01T03:49:32;2.80;;;0.93;;
44366;SDS011;30086;57.660;12.000;2023-04-01T03:51:58;1.38;;;1.08;;
44366;SDS011;30086;57.660;12.000;2023-04-01T03:54:25;3.80;;;1.00;;
44366;SDS011;30086;57.660;12.000;2023-04-01T03:56:51;1.55;;;1.13;;
44366;SDS011;30086;57.660;12.000;2023-04-01T03:59:17;1.55;;;1.00;;
44366;SDS011;30086;57.660;12.000;2023-04-01T04:01:43;1.52;;;0.88;;
44366;SDS011;30086;57.660;12.000;2023-04-01T04:04:12;3.38;;;1.05;;
44366;SDS011;30086;57.660;12.000;2023-04-01T04:06:38;1.25;;;1.00;;
44366;SDS011;30086;57.660;12.000;2023-04-01T04:09:04;2.53;;;1.25;;
44366;SDS011;30086;57.660;12.000;2023-04-01T04:11:30;1.25;;;0.90;;
44366;SDS011;30086;57.660;12.000;2023-04-01T04:13:58;2.38;;;1.30;;
44366;SDS011;30086;57.660;12.000;2023-04-01T04:16:24;2.08;;;0.90;;
44366;SDS011;30086;57.660;12.000;2023-04-01T04:18:50;1.73;;;1.00;;
44366;SDS011;30086;57.660;12.000;2023-04-01T04:21:16;1.38;;;0.80;;
44366;SDS011;30086;57.660;12.000;2023-04-01T04:23:43;0.75;;;0.75;;
44366;SDS011;30086;57.660;12.000;2023-04-01T04:26:11;1.35;;;0.85;;
44366;SDS011;30086;57.660;12.000;2023-04-01T04:28:38;1.38;;;1.00;;
44366;SDS011;30086;57.660;12.000;2023-04-01T04:31:04;3.13;;;1.10;;
44366;SDS011;30086;57.660;12.000;2023-04-01T04:33:31;1.67;;;1.10;;
44366;SDS011;30086;57.660;12.000;2023-04-01T04:35:57;2.63;;;1.05;;
44366;SDS011;30086;57.660;12.000;2023-04-01T04:38:24;1.67;;;1.10;;
44366;SDS011;30086;57.660;12.000;2023-04-01T04:40:50;1.75;;;0.90;;
44366;SDS011;30086;57.660;12.000;2023-04-01T04:43:16;1.23;;;0.85;;
44366;SDS011;30086;57.660;12.000;2023-04-01T04:45:44;1.80;;;1.00;;
44366;SDS011;30086;57.660;12.000;2023-04-01T04:48:11;1.50;;;0.70;;
44366;SDS011;30086;57.660;12.000;2023-04-01T04:50:41;1.67;;;1.08;;
44366;SDS011;30086;57.660;12.000;2023-04-01T04:53:13;0.82;;;0.73;;
44366;SDS011;30086;57.660;12.000;2023-04-01T04:55:47;1.55;;;1.02;;
44366;SDS011;30086;57.660;12.000;2023-04-01T04:58:13;2.47;;;1.27;;
44366;SDS011;30086;57.660;12.000;2023-04-01T05:00:40;1.63;;;1.35;;
44366;SDS011;30086;57.660;12.000;2023-04-01T05:03:06;4.07;;;1.02;;
44366;SDS011;30086;57.660;12.000;2023-04-01T05:05:32;4.95;;;1.17;;
44366;SDS011;30086;57.660;12.000;2023-04-01T05:07:58;1.48;;;0.90;;
44366;SDS011;30086;57.660;12.000;2023-04-01T05:10:24;1.50;;;1.17;;
44366;SDS011;30086;57.660;12.000;2023-04-01T05:12:50;1.10;;;0.90;;
44366;SDS011;30086;57.660;12.000;2023-04-01T05:15:16;1.70;;;1.02;;
44366;SDS011;30086;57.660;12.000;2023-04-01T05:17:42;1.42;;;1.00;;
44366;SDS011;30086;57.660;12.000;2023-04-01T05:20:08;1.50;;;1.00;;
44366;SDS011;30086;57.660;12.000;2023-04-01T05:22:35;1.20;;;0.85;;
44366;SDS011;30086;57.660;12.000;2023-04-01T05:25:01;1.45;;;0.85;;
44366;SDS011;30086;57.660;12.000;2023-04-01T05:27:27;1.35;;;0.93;;
44366;SDS011;30086;57.660;12.000;2023-04-01T05:29:53;2.90;;;1.00;;
44366;SDS011;30086;57.660;12.000;2023-04-01T05:32:21;0.70;;;0.70;;
44366;SDS011;30086;57.660;12.000;2023-04-01T05:34:49;1.70;;;0.80;;
44366;SDS011;30086;57.660;12.000;2023-04-01T05:37:15;1.02;;;0.73;;
44366;SDS011;30086;57.660;12.000;2023-04-01T05:39:42;2.85;;;1.00;;
44366;SDS011;30086;57.660;12.000;2023-04-01T05:42:08;1.77;;;0.60;;
44366;SDS011;30086;57.660;12.000;2023-04-01T05:44:34;0.52;;;0.52;;
44366;SDS011;30086;57.660;12.000;2023-04-01T05:47:00;1.15;;;0.75;;
44366;SDS011;30086;57.660;12.000;2023-04-01T05:49:26;0.95;;;0.77;;
44366;SDS011;30086;57.660;12.000;2023-04-01T05:51:52;1.95;;;0.98;;
44366;SDS011;30086;57.660;12.000;2023-04-01T05:54:19;1.48;;;0.90;;
44366;SDS011;30086;57.660;12.000;2023-04-01T05:56:45;2.05;;;0.60;;
44366;SDS011;30086;57.660;12.000;2023-04-01T05:59:11;1.30;;;0.85;;
44366;SDS011;30086;57.660;12.000;2023-04-01T06:01:38;1.65;;;0.70;;
44366;SDS011;30086;57.660;12.000;2023-04-01T06:04:04;2.88;;;1.00;;
44366;SDS011;30086;57.660;12.000;2023-04-01T06:06:30;2.97;;;1.02;;
44366;SDS011;30086;57.660;12.000;2023-04-01T06:08:58;1.10;;;0.70;;
44366;SDS011;30086;57.660;12.000;2023-04-01T06:11:37;0.73;;;0.60;;
44366;SDS011;30086;57.660;12.000;2023-04-01T06:14:27;1.45;;;0.63;;
44366;SDS011;30086;57.660;12.000;2023-04-01T06:17:01;2.72;;;0.80;;
44366;SDS011;30086;57.660;12.000;2023-04-01T06:24:43;1.50;;;0.73;;
44366;SDS011;30086;57.660;12.000;2023-04-01T06:29:44;1.42;;;0.88;;
44366;SDS011;30086;57.660;12.000;2023-04-01T06:37:48;1.80;;;0.80;;
44366;SDS011;30086;57.660;12.000;2023-04-01T06:45:22;1.08;;;0.88;;
44366;SDS011;30086;57.660;12.000;2023-04-01T06:50:33;1.05;;;0.60;;
44366;SDS011;30086;57.660;12.000;2023-04-01T06:56:05;7.07;;;1.00;;
44366;SDS011;30086;57.660;12.000;2023-04-01T06:58:36;0.65;;;0.60;;
44366;SDS011;30086;57.660;12.000;2023-04-01T07:01:04;1.50;;;0.80;;
44366;SDS011;30086;57.660;12.000;2023-04-01T07:03:43;2.63;;;0.82;;
44366;SDS011;30086;57.660;12.000;2023-04-01T07:06:13;2.13;;;0.70;;
44366;SDS011;30086;57.660;12.000;2023-04-01T07:08:40;1.05;;;0.65;;
44366;SDS011;30086;57.660;12.000;2023-04-01T07:11:11;3.03;;;0.52;;
44366;SDS011;30086;57.660;12.000;2023-04-01T07:16:27;1.38;;;0.60;;
44366;SDS011;30086;57.660;12.000;2023-04-01T07:19:06;0.95;;;0.55;;
44366;SDS011;30086;57.660;12.000;2023-04-01T07:21:35;2.13;;;0.63;;
44366;SDS011;30086;57.660;12.000;2023-04-01T07:24:44;2.42;;;0.55;;
44366;SDS011;30086;57.660;12.000;2023-04-01T07:26:55;0.93;;;0.70;;
44366;SDS011;30086;57.660;12.000;2023-04-01T07:29:21;3.40;;;0.70;;
44366;SDS011;30086;57.660;12.000;2023-04-01T07:44:42;2.88;;;0.75;;
44366;SDS011;30086;57.660;12.000;2023-04-01T07:55:09;1.10;;;0.50;;
44366;SDS011;30086;57.660;12.000;2023-04-01T07:57:41;4.32;;;0.80;;
44366;SDS011;30086;57.660;12.000;2023-04-01T08:00:16;2.15;;;0.50;;
44366;SDS011;30086;57.660;12.000;2023-04-01T08:08:19;3.78;;;0.65;;
44366;SDS011;30086;57.660;12.000;2023-04-01T08:10:55;1.40;;;0.60;;
44366;SDS011;30086;57.660;12.000;2023-04-01T08:21:13;1.23;;;0.50;;
44366;SDS011;30086;57.660;12.000;2023-04-01T08:23:41;3.45;;;0.63;;
44366;SDS011;30086;57.660;12.000;2023-04-01T08:28:52;1.75;;;0.77;;
44366;SDS011;30086;57.660;12.000;2023-04-01T08:31:25;1.85;;;0.70;;
44366;SDS011;30086;57.660;12.000;2023-04-01T08:33:56;0.73;;;0.52;;
44366;SDS011;30086;57.660;12.000;2023-04-01T08:36:29;2.25;;;0.70;;
44366;SDS011;30086;57.660;12.000;2023-04-01T08:52:14;4.35;;;0.85;;
44366;SDS011;30086;57.660;12.000;2023-04-01T09:15:13;2.08;;;0.70;;
44366;SDS011;30086;57.660;12.000;2023-04-01T09:25:45;3.53;;;0.50;;
44366;SDS011;30086;57.660;12.000;2023-04-01T09:28:20;0.88;;;0.70;;
44366;SDS011;30086;57.660;12.000;2023-04-01T09:36:08;3.92;;;0.90;;
44366;SDS011;30086;57.660;12.000;2023-04-01T09:39:03;1.23;;;0.60;;
44366;SDS011;30086;57.660;12.000;2023-04-01T09:44:23;0.77;;;0.45;;
44366;SDS011;30086;57.660;12.000;2023-04-01T10:00:20;3.20;;;0.60;;
44366;SDS011;30086;57.660;12.000;2023-04-01T10:23:36;0.50;;;0.50;;
44366;SDS011;30086;57.660;12.000;2023-04-01T10:26:07;2.03;;;0.50;;
44366;SDS011;30086;57.660;12.000;2023-04-01T10:28:41;1.50;;;0.60;;
44366;SDS011;30086;57.660;12.000;2023-04-01T10:34:17;1.65;;;0.60;;
44366;SDS011;30086;57.660;12.000;2023-04-01T10:36:53;0.77;;;0.52;;
44366;SDS011;30086;57.660;12.000;2023-04-01T11:08:23;1.77;;;0.73;;
44366;SDS011;30086;57.660;12.000;2023-04-01T11:22:08;1.17;;;0.60;;
44366;SDS011;30086;57.660;12.000;2023-04-01T11:35:12;2.20;;;0.50;;
44366;SDS011;30086;57.660;12.000;2023-04-01T11:37:50;8.32;;;0.80;;
44366;SDS011;30086;57.660;12.000;2023-04-01T11:40:23;0.47;;;0.47;;
44366;SDS011;30086;57.660;12.000;2023-04-01T11:45:29;3.42;;;0.40;;
44366;SDS011;30086;57.660;12.000;2023-04-01T11:48:20;1.52;;;0.60;;
44366;SDS011;30086;57.660;12.000;2023-04-01T11:58:33;0.82;;;0.55;;
44366;SDS011;30086;57.660;12.000;2023-04-01T12:19:19;0.38;;;0.38;;
44366;SDS011;30086;57.660;12.000;2023-04-01T12:32:14;3.03;;;0.57;;
44366;SDS011;30086;57.660;12.000;2023-04-01T12:45:15;1.10;;;0.40;;
44366;SDS011;30086;57.660;12.000;2023-04-01T12:47:50;1.65;;;0.55;;
44366;SDS011;30086;57.660;12.000;2023-04-01T12:55:45;0.60;;;0.50;;
44366;SDS011;30086;57.660;12.000;2023-04-01T13:03:17;3.38;;;0.88;;
44366;SDS011;30086;57.660;12.000;2023-04-01T13:16:38;0.85;;;0.57;;
44366;SDS011;30086;57.660;12.000;2023-04-01T13:24:31;3.00;;;0.52;;
44366;SDS011;30086;57.660;12.000;2023-04-01T13:35:46;1.90;;;0.73;;
44366;SDS011;30086;57.660;12.000;2023-04-01T13:43:16;1.58;;;0.45;;
44366;SDS011;30086;57.660;12.000;2023-04-01T13:54:09;1.02;;;0.45;;
44366;SDS011;30086;57.660;12.000;2023-04-01T14:01:59;1.95;;;0.70;;
44366;SDS011;30086;57.660;12.000;2023-04-01T14:12:17;1.60;;;0.80;;
44366;SDS011;30086;57.660;12.000;2023-04-01T14:17:47;0.98;;;0.50;;
44366;SDS011;30086;57.660;12.000;2023-04-01T14:23:35;0.77;;;0.60;;
44366;SDS011;30086;57.660;12.000;2023-04-01T14:29:02;1.38;;;0.60;;
44366;SDS011;30086;57.660;12.000;2023-04-01T14:34:34;2.47;;;0.50;;
44366;SDS011;30086;57.660;12.000;2023-04-01T14:37:06;1.05;;;0.40;;
44366;SDS011;30086;57.660;12.000;2023-04-01T14:50:05;3.38;;;1.10;;
44366;SDS011;30086;57.660;12.000;2023-04-01T14:52:33;1.15;;;0.50;;
44366;SDS011;30086;57.660;12.000;2023-04-01T14:55:00;3.28;;;0.68;;
44366;SDS011;30086;57.660;12.000;2023-04-01T14:57:30;0.73;;;0.50;;
44366;SDS011;30086;57.660;12.000;2023-04-01T15:15:38;0.52;;;0.50;;
44366;SDS011;30086;57.660;12.000;2023-04-01T15:18:09;0.47;;;0.40;;
44366;SDS011;30086;57.660;12.000;2023-04-01T15:25:38;0.95;;;0.40;;
44366;SDS011;30086;57.660;12.000;2023-04-01T15:38:30;0.32;;;0.30;;
44366;SDS011;30086;57.660;12.000;2023-04-01T15:56:13;0.45;;;0.40;;
44366;SDS011;30086;57.660;12.000;2023-04-01T15:58:51;0.80;;;0.57;;
44366;SDS011;30086;57.660;12.000;2023-04-01T16:01:31;1.83;;;0.57;;
44366;SDS011;30086;57.660;12.000;2023-04-01T16:06:45;1.55;;;0.63;;
44366;SDS011;30086;57.660;12.000;2023-04-01T16:11:53;2.42;;;0.57;;
44366;SDS011;30086;57.660;12.000;2023-04-01T16:22:01;1.00;;;0.60;;
44366;SDS011;30086;57.660;12.000;2023-04-01T16:34:41;1.10;;;0.60;;
44366;SDS011;30086;57.660;12.000;2023-04-01T16:37:17;0.77;;;0.40;;
44366;SDS011;30086;57.660;12.000;2023-04-01T16:48:19;3.78;;;0.40;;
44366;SDS011;30086;57.660;12.000;2023-04-01T16:53:30;0.95;;;0.65;;
44366;SDS011;30086;57.660;12.000;2023-04-01T17:01:00;2.13;;;0.50;;
44366;SDS011;30086;57.660;12.000;2023-04-01T17:03:44;1.02;;;0.57;;
44366;SDS011;30086;57.660;12.000;2023-04-01T17:11:20;0.70;;;0.55;;
44366;SDS011;30086;57.660;12.000;2023-04-01T17:13:58;1.23;;;0.60;;
44366;SDS011;30086;57.660;12.000;2023-04-01T17:24:08;1.73;;;0.73;;
44366;SDS011;30086;57.660;12.000;2023-04-01T17:30:12;1.45;;;0.60;;
44366;SDS011;30086;57.660;12.000;2023-04-01T17:32:09;2.35;;;0.80;;
44366;SDS011;30086;57.660;12.000;2023-04-01T17:37:20;0.95;;;0.43;;
44366;SDS011;30086;57.660;12.000;2023-04-01T17:45:24;3.42;;;0.80;;
44366;SDS011;30086;57.660;12.000;2023-04-01T18:06:14;1.70;;;0.50;;
44366;SDS011;30086;57.660;12.000;2023-04-01T18:16:16;0.65;;;0.43;;
44366;SDS011;30086;57.660;12.000;2023-04-01T18:18:58;3.75;;;0.60;;
44366;SDS011;30086;57.660;12.000;2023-04-01T18:27:32;1.05;;;0.70;;
44366;SDS011;30086;57.660;12.000;2023-04-01T18:43:13;1.40;;;0.80;;
44366;SDS011;30086;57.660;12.000;2023-04-01T18:45:49;3.08;;;0.77;;
44366;SDS011;30086;57.660;12.000;2023-04-01T18:56:02;4.50;;;0.90;;
44366;SDS011;30086;57.660;12.000;2023-04-01T18:58:36;1.15;;;0.60;;
44366;SDS011;30086;57.660;12.000;2023-04-01T19:01:15;0.57;;;0.57;;
44366;SDS011;30086;57.660;12.000;2023-04-01T19:03:52;3.63;;;0.93;;
44366;SDS011;30086;57.660;12.000;2023-04-01T19:06:23;4.05;;;0.90;;
44366;SDS011;30086;57.660;12.000;2023-04-01T19:08:52;1.77;;;1.35;;
44366;SDS011;30086;57.660;12.000;2023-04-01T19:11:41;2.50;;;1.42;;
44366;SDS011;30086;57.660;12.000;2023-04-01T19:50:06;7.97;;;1.30;;
44366;SDS011;30086;57.660;12.000;2023-04-01T19:52:41;6.13;;;1.42;;
44366;SDS011;30086;57.660;12.000;2023-04-01T19:55:25;2.45;;;1.10;;
44366;SDS011;30086;57.660;12.000;2023-04-01T19:58:00;3.55;;;1.50;;
44366;SDS011;30086;57.660;12.000;2023-04-01T20:00:32;12.73;;;2.38;;
44366;SDS011;30086;57.660;12.000;2023-04-01T20:03:04;8.13;;;1.17;;
44366;SDS011;30086;57.660;12.000;2023-04-01T20:08:10;7.88;;;1.80;;
44366;SDS011;30086;57.660;12.000;2023-04-01T20:10:41;7.25;;;2.78;;
44366;SDS011;30086;57.660;12.000;2023-04-01T20:13:14;13.48;;;1.95;;
44366;SDS011;30086;57.660;12.000;2023-04-01T20:15:43;9.43;;;1.27;;
44366;SDS011;30086;57.660;12.000;2023-04-01T20:18:15;6.53;;;1.48;;
44366;SDS011;30086;57.660;12.000;2023-04-01T20:20:51;8.30;;;1.92;;
44366;SDS011;30086;57.660;12.000;2023-04-01T20:23:34;7.53;;;2.10;;
44366;SDS011;30086;57.660;12.000;2023-04-01T20:26:09;6.70;;;1.40;;
44366;SDS011;30086;57.660;12.000;2023-04-01T20:31:41;4.85;;;2.08;;
44366;SDS011;30086;57.660;12.000;2023-04-01T20:36:57;5.82;;;2.17;;
44366;SDS011;30086;57.660;12.000;2023-04-01T20:41:58;8.40;;;2.05;;
44366;SDS011;30086;57.660;12.000;2023-04-01T20:47:04;8.15;;;2.17;;
44366;SDS011;30086;57.660;12.000;2023-04-01T20:57:21;7.82;;;2.30;;
44366;SDS011;30086;57.660;12.000;2023-04-01T21:00:14;7.72;;;2.50;;
44366;SDS011;30086;57.660;12.000;2023-04-01T21:02:51;12.10;;;2.80;;
44366;SDS011;30086;57.660;12.000;2023-04-01T21:07:55;14.43;;;2.88;;
44366;SDS011;30086;57.660;12.000;2023-04-01T21:26:30;5.50;;;1.50;;
44366;SDS011;30086;57.660;12.000;2023-04-01T21:29:23;7.57;;;1.63;;
44366;SDS011;30086;57.660;12.000;2023-04-01T21:39:47;3.35;;;1.60;;
44366;SDS011;30086;57.660;12.000;2023-04-01T22:00:25;9.50;;;2.05;;
44366;SDS011;30086;57.660;12.000;2023-04-01T22:03:03;11.77;;;1.95;;
44366;SDS011;30086;57.660;12.000;2023-04-01T22:05:37;13.02;;;2.33;;
44366;SDS011;30086;57.660;12.000;2023-04-01T22:11:09;8.40;;;2.03;;
44366;SDS011;30086;57.660;12.000;2023-04-01T22:18:34;10.82;;;2.47;;
44366;SDS011;30086;57.660;12.000;2023-04-01T22:23:50;12.15;;;2.50;;
44366;SDS011;30086;57.660;12.000;2023-04-01T22:28:51;10.48;;;2.15;;
44366;SDS011;30086;57.660;12.000;2023-04-01T22:31:23;19.17;;;2.95;;
44366;SDS011;30086;57.660;12.000;2023-04-01T22:44:28;7.75;;;2.40;;
44366;SDS011;30086;57.660;12.000;2023-04-01T22:47:00;4.45;;;2.10;;
44366;SDS011;30086;57.660;12.000;2023-04-01T22:54:40;3.78;;;1.90;;
44366;SDS011;30086;57.660;12.000;2023-04-01T22:57:08;6.32;;;1.92;;
44366;SDS011;30086;57.660;12.000;2023-04-01T22:59:45;8.93;;;2.30;;
44366;SDS011;30086;57.660;12.000;2023-04-01T23:02:16;9.20;;;2.00;;
44366;SDS011;30086;57.660;12.000;2023-04-01T23:04:45;4.25;;;2.15;;
44366;SDS011;30086;57.660;12.000;2023-04-01T23:09:54;10.73;;;2.20;;
44366;SDS011;30086;57.660;12.000;2023-04-01T23:12:22;14.32;;;2.28;;
44366;SDS011;30086;57.660;12.000;2023-04-01T23:14:50;4.13;;;2.15;;
44366;SDS011;30086;57.660;12.000;2023-04-01T23:17:26;6.85;;;2.67;;
44366;SDS011;30086;57.660;12.000;2023-04-01T23:22:34;5.03;;;2.10;;
44366;SDS011;30086;57.660;12.000;2023-04-01T23:27:28;5.78;;;2.05;;
44366;SDS011;30086;57.660;12.000;2023-04-01T23:29:56;9.00;;;2.00;;
44366;SDS011;30086;57.660;12.000;2023-04-01T23:32:22;8.32;;;2.10;;
44366;SDS011;30086;57.660;12.000;2023-04-01T23:34:51;4.68;;;1.67;;
44366;SDS011;30086;57.660;12.000;2023-04-01T23:37:21;6.50;;;1.90;;
44366;SDS011;30086;57.660;12.000;2023-04-01T23:40:10;10.20;;;1.90;;
44366;SDS011;30086;57.660;12.000;2023-04-01T23:42:38;4.28;;;1.88;;
44366;SDS011;30086;57.660;12.000;2023-04-01T23:45:15;5.90;;;2.17;;
44366;SDS011;30086;57.660;12.000;2023-04-01T23:47:42;8.82;;;1.65;;
44366;SDS011;30086;57.660;12.000;2023-04-01T23:50:18;6.70;;;2.28;;
44366;SDS011;30086;57.660;12.000;2023-04-01T23:52:46;6.60;;;1.70;;
44366;SDS011;30086;57.660;12.000;2023-04-01T23:55:17;4.15;;;1.75;;
44366;SDS011;30086;57.660;12.000;2023-04-01T23:58:00;4.90;;;2.28;;
